FNLU/LAD METAR and TAF weather

Enter ICAO airport designator
Station Type Date Time Source
FNLU METAR 2022/01/23 12:00 UTC NOAA

FNLU 231200Z 26008KT 9999 FEW022 28/21 Q1009 NOSIG


Station Type Date Time Source
FNLU Decoded METAR 2022/01/23 12:00 UTC NOAA

Luanda, Angola (FNLU) 08-51S 013-14E 70M
Jan 23, 2022 - 07:00 AM EST / 2022.01.23 1200 UTC
Wind: from the W (260 degrees) at 9 MPH (8 KT):0
Visibility: greater than 7 mile(s):0
Sky conditions: mostly clear
Temperature: 82 F (28 C)
Dew Point: 69 F (21 C)
Relative Humidity: 65%
Pressure (altimeter): 29.80 in. Hg (1009 hPa)
ob: FNLU 231200Z 26008KT 9999 FEW022 28/21 Q1009 NOSIG
cycle: 12

Station Type Date Time Source
FNLU TAF 2022/01/23 12:45 UTC NOAA

TAF FNLU 231100Z 2312/2418 24012KT 9999 STC020
TEMPO 2415/2420 FEW020
TEMPO 2402/2406 15006KT 8000 BKN020
BECMG 2408/2410 VRB02KT
TEMPO 2412/2416 26010KT

Example: see airport list